Time;durP1;ratioP1;P1;durP2;ratioP2;P2;SDS_P1;SDS_P2;PMS_P1;PMS_P2;Temp;Humidity;BMP_temperature;BMP_pressure;BME280_temperature;BME280_humidity;BME280_pressure;Samples;Min_cycle;Max_cycle;Signal;HPM_P1;HPM_P2
2022/06/02 00:00:39;;;;;;;12.63;11.40;;;9.60;99.90;;;;;;5050586;28;20661;-65
2022/06/02 00:03:17;;;;;;;13.77;12.27;;;9.60;99.90;;;;;;5049449;28;20670;-64
2022/06/02 00:05:57;;;;;;;13.33;11.90;;;9.60;99.90;;;;;;5050292;28;20224;-64
2022/06/02 00:08:44;;;;;;;19.97;13.23;;;9.60;99.90;;;;;;5052404;28;20167;-64
2022/06/02 00:11:22;;;;;;;13.97;12.60;;;9.60;99.90;;;;;;5054272;28;20236;-64
2022/06/02 00:13:59;;;;;;;14.20;12.80;;;9.60;99.90;;;;;;5054394;28;20178;-64
2022/06/02 00:16:48;;;;;;;19.57;13.20;;;9.60;99.90;;;;;;5054194;28;20236;-64
2022/06/02 00:19:44;;;;;;;13.77;12.40;;;9.60;99.90;;;;;;5054568;28;20240;-64
2022/06/02 00:22:16;;;;;;;13.70;11.87;;;9.60;99.90;;;;;;5046311;28;20356;-64
2022/06/02 00:25:00;;;;;;;13.40;11.97;;;9.60;99.90;;;;;;5054123;28;20244;-64
2022/06/02 00:27:51;;;;;;;13.83;12.33;;;9.60;99.90;;;;;;5054424;28;20198;-64
2022/06/02 00:30:29;;;;;;;14.07;12.57;;;9.60;99.90;;;;;;5054174;28;20178;-64
2022/06/02 00:32:59;;;;;;;13.33;12.10;;;9.50;99.90;;;;;;5053738;28;20202;-65
2022/06/02 00:35:53;;;;;;;14.53;12.30;;;9.40;99.90;;;;;;5054048;28;20558;-65
2022/06/02 00:38:23;;;;;;;12.60;11.47;;;9.40;99.90;;;;;;5035817;28;20191;-65
2022/06/02 00:40:49;;;;;;;13.97;12.57;;;9.30;99.90;;;;;;5053692;28;20240;-64
2022/06/02 00:43:14;;;;;;;13.87;12.50;;;9.30;99.90;;;;;;5054054;28;20171;-64
2022/06/02 00:45:42;;;;;;;14.67;13.13;;;9.20;99.90;;;;;;5053520;28;20175;-64
2022/06/02 00:48:49;;;;;;;17.07;14.23;;;9.10;99.90;;;;;;5052482;28;20170;-65
2022/06/02 00:51:21;;;;;;;16.67;13.83;;;9.00;99.90;;;;;;5006724;28;20789;-64
2022/06/02 00:57:32;;;;;;;15.10;13.53;;;9.00;99.90;;;;;;5033899;28;20615;-64
2022/06/02 01:00:08;;;;;;;15.23;13.37;;;9.00;99.90;;;;;;5042844;28;20192;-62
2022/06/02 01:02:45;;;;;;;17.37;14.40;;;9.00;99.90;;;;;;5053574;28;20199;-64
2022/06/02 01:05:11;;;;;;;20.73;15.17;;;9.00;99.90;;;;;;5053009;28;20681;-64
2022/06/02 01:08:07;;;;;;;16.57;14.43;;;8.90;99.90;;;;;;5053728;28;20170;-64
2022/06/02 01:10:44;;;;;;;16.20;14.33;;;8.90;99.90;;;;;;5033650;28;20583;-63
2022/06/02 01:13:30;;;;;;;15.53;13.63;;;9.00;99.90;;;;;;5035916;28;20178;-64
2022/06/02 01:16:23;;;;;;;16.50;13.87;;;8.90;99.90;;;;;;5053514;28;20721;-65
2022/06/02 01:19:16;;;;;;;16.03;13.50;;;8.90;99.90;;;;;;5052508;28;20545;-64
2022/06/02 01:22:17;;;;;;;14.00;12.53;;;9.00;99.90;;;;;;5033125;28;20589;-62
2022/06/02 01:25:27;;;;;;;18.73;14.33;;;8.90;99.90;;;;;;5043023;28;20186;-63
2022/06/02 01:28:17;;;;;;;13.73;12.37;;;8.80;99.90;;;;;;4975310;28;20702;-64
2022/06/02 01:31:24;;;;;;;16.57;14.57;;;8.70;99.90;;;;;;5031321;28;20594;-63
2022/06/02 01:34:24;;;;;;;14.70;13.20;;;8.70;99.90;;;;;;5010069;28;20194;-65
2022/06/02 01:37:15;;;;;;;14.10;12.60;;;8.70;99.90;;;;;;5053150;28;20163;-63
2022/06/02 01:39:59;;;;;;;15.13;13.53;;;8.70;99.90;;;;;;5033165;28;20539;-65
2022/06/02 01:42:41;;;;;;;15.50;13.80;;;8.70;99.90;;;;;;5034195;28;20632;-64
2022/06/02 01:45:25;;;;;;;15.90;14.20;;;8.60;99.90;;;;;;5052643;28;20628;-64
2022/06/02 01:48:07;;;;;;;15.40;13.80;;;8.60;99.90;;;;;;5050886;28;20183;-64
2022/06/02 01:51:25;;;;;;;17.10;13.93;;;8.50;99.90;;;;;;5052792;28;20617;-64
2022/06/02 01:54:02;;;;;;;15.70;14.10;;;8.50;99.90;;;;;;5034481;28;20199;-65
2022/06/02 01:56:46;;;;;;;16.33;13.83;;;8.40;99.90;;;;;;5052883;28;20180;-64
2022/06/02 01:59:28;;;;;;;16.17;14.53;;;8.30;99.90;;;;;;5052650;28;20257;-64
2022/06/02 02:02:00;;;;;;;14.03;12.73;;;8.30;99.90;;;;;;5050629;28;20217;-64
2022/06/02 02:04:50;;;;;;;15.47;14.07;;;8.20;99.90;;;;;;5052071;28;20181;-65
2022/06/02 02:07:34;;;;;;;18.13;14.00;;;8.20;99.90;;;;;;5052279;28;20206;-64
2022/06/02 02:10:36;;;;;;;21.70;14.57;;;8.10;99.90;;;;;;5052503;28;20677;-64
2022/06/02 02:13:39;;;;;;;18.30;15.03;;;8.10;99.90;;;;;;5051907;28;20209;-64
2022/06/02 02:16:41;;;;;;;18.40;14.27;;;8.10;99.90;;;;;;5052377;28;20557;-67
2022/06/02 02:19:25;;;;;;;17.63;14.23;;;8.00;99.90;;;;;;5052097;28;20548;-67
2022/06/02 02:21:56;;;;;;;18.17;15.77;;;8.00;99.90;;;;;;5053108;28;20215;-70
2022/06/02 02:24:34;;;;;;;19.37;15.43;;;7.90;99.90;;;;;;5052855;28;20658;-69
2022/06/02 02:27:06;;;;;;;17.17;15.47;;;7.90;99.90;;;;;;5053071;28;20197;-68
2022/06/02 02:29:58;;;;;;;18.63;15.13;;;7.90;99.90;;;;;;5053352;28;20178;-67
2022/06/02 02:32:51;;;;;;;18.27;15.20;;;7.90;99.90;;;;;;5052616;28;20198;-69
2022/06/02 02:35:49;;;;;;;19.10;16.53;;;7.90;99.90;;;;;;5053241;28;20175;-68
2022/06/02 02:38:35;;;;;;;18.90;14.93;;;7.90;99.90;;;;;;5052924;28;20179;-67
2022/06/02 02:41:09;;;;;;;19.10;14.50;;;7.90;99.90;;;;;;5052970;28;20259;-64
2022/06/02 02:44:00;;;;;;;21.97;15.10;;;7.90;99.90;;;;;;5032778;28;20169;-66
2022/06/02 02:46:39;;;;;;;17.60;15.73;;;7.80;99.90;;;;;;5034796;28;20234;-72
2022/06/02 02:49:17;;;;;;;19.20;16.33;;;7.80;99.90;;;;;;5051675;28;20182;-69
2022/06/02 02:51:46;;;;;;;20.87;16.70;;;7.80;99.90;;;;;;5052908;28;20566;-67
2022/06/02 02:54:16;;;;;;;23.07;15.87;;;7.80;99.90;;;;;;5051975;28;20673;-67
2022/06/02 02:57:00;;;;;;;21.17;16.50;;;7.80;99.90;;;;;;5051736;28;20179;-68
2022/06/02 02:59:43;;;;;;;27.47;18.37;;;7.90;99.90;;;;;;5052725;28;20544;-69
2022/06/02 03:02:35;;;;;;;19.80;17.37;;;7.90;99.90;;;;;;5035716;28;20728;-70
2022/06/02 03:05:25;;;;;;;25.97;18.00;;;7.90;99.90;;;;;;5049565;28;20210;-68
2022/06/02 03:07:51;;;;;;;25.10;17.87;;;7.90;99.90;;;;;;5052961;28;20217;-68
2022/06/02 03:10:22;;;;;;;20.60;16.80;;;7.90;99.90;;;;;;5052604;28;20206;-67
2022/06/02 03:13:15;;;;;;;22.60;16.80;;;7.90;99.90;;;;;;5052659;28;20584;-68
2022/06/02 03:15:58;;;;;;;24.37;18.00;;;7.90;99.90;;;;;;5032691;28;20654;-69
2022/06/02 03:18:31;;;;;;;18.90;16.30;;;7.80;99.90;;;;;;5035167;28;20245;-66
2022/06/02 03:21:24;;;;;;;21.13;16.53;;;7.80;99.90;;;;;;5052234;28;20182;-66
2022/06/02 03:24:30;;;;;;;20.77;16.27;;;7.80;99.90;;;;;;5052456;28;20541;-66
2022/06/02 03:27:01;;;;;;;27.07;17.27;;;7.90;99.90;;;;;;5052425;28;20644;-65
2022/06/02 03:29:33;;;;;;;22.93;16.30;;;7.80;99.90;;;;;;5052344;28;20265;-68
2022/06/02 03:32:29;;;;;;;25.47;17.63;;;7.80;99.90;;;;;;5052428;28;20730;-67
2022/06/02 03:35:35;;;;;;;20.57;16.13;;;7.80;99.90;;;;;;5051848;28;20670;-68
2022/06/02 03:38:16;;;;;;;23.13;17.60;;;7.90;99.90;;;;;;5027756;28;20581;-69
2022/06/02 03:41:13;;;;;;;21.53;16.57;;;7.80;99.90;;;;;;5051427;28;20171;-64
2022/06/02 03:44:18;;;;;;;21.37;16.80;;;7.90;99.90;;;;;;5051715;28;20236;-64
2022/06/02 03:47:07;;;;;;;21.60;17.97;;;7.90;99.90;;;;;;5055373;28;20663;-65
2022/06/02 03:49:38;;;;;;;21.93;17.30;;;7.90;99.90;;;;;;5055271;28;20217;-65
2022/06/02 03:52:28;;;;;;;22.40;17.57;;;7.90;99.90;;;;;;5053571;28;20202;-63
2022/06/02 03:55:00;;;;;;;23.23;17.83;;;7.90;99.90;;;;;;5058310;28;20246;-65
2022/06/02 03:57:55;;;;;;;24.37;17.57;;;7.90;99.90;;;;;;5060372;28;20212;-64
2022/06/02 04:00:29;;;;;;;27.13;19.20;;;7.90;99.90;;;;;;5043456;28;20190;-64
2022/06/02 04:03:01;;;;;;;26.77;17.97;;;8.00;99.90;;;;;;5054866;28;20210;-64
2022/06/02 04:05:48;;;;;;;21.77;18.57;;;8.00;99.90;;;;;;5054824;28;20305;-65
2022/06/02 04:08:23;;;;;;;21.57;17.40;;;8.00;99.90;;;;;;5054694;28;20193;-65
2022/06/02 04:11:00;;;;;;;22.87;18.37;;;8.10;99.90;;;;;;5054869;28;20537;-65
2022/06/02 04:13:47;;;;;;;26.07;18.03;;;8.10;99.90;;;;;;5054459;28;20170;-64
2022/06/02 04:16:43;;;;;;;23.60;18.83;;;8.20;99.90;;;;;;5054855;28;20178;-65
2022/06/02 04:22:23;;;;;;;25.17;18.97;;;8.20;99.90;;;;;;5054897;28;20222;-65
2022/06/02 04:25:07;;;;;;;26.60;19.47;;;8.30;99.90;;;;;;5054341;28;20174;-65
2022/06/02 04:27:50;;;;;;;26.10;20.43;;;8.30;99.90;;;;;;5053157;28;20198;-65
2022/06/02 04:30:44;;;;;;;25.43;19.60;;;8.50;99.90;;;;;;5054591;28;20220;-64
2022/06/02 04:33:14;;;;;;;25.13;19.40;;;8.50;99.90;;;;;;5048432;28;20641;-65
2022/06/02 04:36:01;;;;;;;24.37;19.53;;;8.60;99.90;;;;;;5053569;28;20171;-64
2022/06/02 04:39:09;;;;;;;26.23;19.63;;;8.60;99.90;;;;;;5054385;28;20610;-65
2022/06/02 04:41:55;;;;;;;25.40;19.23;;;8.60;99.90;;;;;;5051549;28;20769;-65
2022/06/02 04:44:49;;;;;;;22.43;17.70;;;8.60;99.90;;;;;;5054032;28;20571;-64
2022/06/02 04:47:30;;;;;;;25.30;18.57;;;8.70;99.90;;;;;;5036157;28;20320;-64
2022/06/02 04:50:10;;;;;;;25.07;18.70;;;8.90;99.90;;;;;;5050896;28;20179;-65
2022/06/02 04:53:21;;;;;;;27.00;20.00;;;9.00;99.90;;;;;;5050751;28;20742;-65
2022/06/02 04:56:12;;;;;;;24.10;19.00;;;9.30;99.90;;;;;;5018673;28;20191;-65
2022/06/02 04:58:50;;;;;;;23.80;19.50;;;9.70;99.90;;;;;;5010653;28;20211;-65
2022/06/02 05:01:53;;;;;;;20.63;18.07;;;10.10;99.90;;;;;;5053602;28;20253;-65
2022/06/02 05:04:40;;;;;;;20.30;18.00;;;10.50;99.90;;;;;;5037268;28;20182;-65
2022/06/02 05:07:17;;;;;;;19.80;16.43;;;10.90;99.90;;;;;;5053875;28;20214;-65
2022/06/02 05:10:20;;;;;;;17.93;15.70;;;11.20;99.90;;;;;;5053512;28;20257;-65
2022/06/02 05:12:51;;;;;;;16.83;15.27;;;11.60;99.90;;;;;;5053552;28;20229;-65
2022/06/02 05:15:55;;;;;;;14.53;13.00;;;12.10;99.90;;;;;;5051443;28;20194;-64
2022/06/02 05:18:45;;;;;;;14.43;12.90;;;12.60;99.90;;;;;;5053553;28;20191;-65
2022/06/02 05:21:36;;;;;;;14.63;13.13;;;13.00;99.90;;;;;;5053543;28;20301;-65
2022/06/02 05:24:21;;;;;;;13.17;11.93;;;13.20;99.90;;;;;;5052958;28;20572;-66
2022/06/02 05:27:07;;;;;;;14.60;13.03;;;13.40;99.90;;;;;;5053497;28;20170;-65
2022/06/02 05:29:55;;;;;;;15.40;12.63;;;13.50;99.90;;;;;;5033615;28;20181;-65
2022/06/02 05:32:52;;;;;;;14.30;12.80;;;13.60;99.90;;;;;;5035877;28;20206;-65
2022/06/02 05:35:30;;;;;;;15.23;12.83;;;13.50;99.90;;;;;;5019497;28;20187;-65
2022/06/02 05:38:14;;;;;;;14.63;13.13;;;13.50;99.90;;;;;;5053175;28;20182;-66
2022/06/02 05:40:48;;;;;;;15.67;13.10;;;13.70;99.90;;;;;;5053466;28;20180;-66
2022/06/02 05:43:41;;;;;;;13.67;12.27;;;14.10;99.90;;;;;;5051992;28;20549;-65
2022/06/02 05:46:13;;;;;;;14.30;12.90;;;14.40;99.90;;;;;;5052859;28;20194;-65
2022/06/02 05:48:45;;;;;;;14.50;12.43;;;14.80;99.90;;;;;;5052417;28;20719;-65
2022/06/02 05:51:32;;;;;;;13.77;12.30;;;15.20;99.90;;;;;;5052727;28;20282;-65
2022/06/02 05:54:35;;;;;;;15.00;11.83;;;15.60;99.90;;;;;;5052683;28;20170;-65
2022/06/02 05:57:08;;;;;;;12.30;11.10;;;16.20;99.90;;;;;;5052606;28;20178;-66
2022/06/02 05:59:53;;;;;;;12.47;11.17;;;16.80;99.90;;;;;;5053064;28;20179;-66
2022/06/02 06:02:37;;;;;;;15.37;12.40;;;17.10;99.90;;;;;;5052423;28;20272;-65
2022/06/02 06:05:03;;;;;;;16.03;13.07;;;17.60;99.90;;;;;;5050715;28;20171;-66
2022/06/02 06:07:54;;;;;;;13.70;12.27;;;17.70;99.90;;;;;;5051901;28;20574;-64
2022/06/02 06:10:44;;;;;;;12.60;11.27;;;17.90;99.90;;;;;;5052491;28;20558;-64
2022/06/02 06:13:29;;;;;;;12.67;11.53;;;18.20;99.90;;;;;;5032515;28;20179;-66
2022/06/02 06:16:24;;;;;;;18.50;12.93;;;18.40;99.90;;;;;;5035574;28;20598;-65
2022/06/02 06:19:24;;;;;;;14.23;12.67;;;18.30;99.90;;;;;;5038998;28;20206;-65
2022/06/02 06:22:10;;;;;;;18.53;13.43;;;18.20;99.90;;;;;;5051974;28;20583;-66
2022/06/02 06:24:54;;;;;;;14.37;12.87;;;18.20;99.90;;;;;;5051878;28;20163;-66
2022/06/02 06:27:48;;;;;;;14.90;12.57;;;18.10;99.90;;;;;;5051020;28;20174;-66
2022/06/02 06:30:34;;;;;;;13.40;11.57;;;18.50;99.90;;;;;;5051925;28;20255;-66
2022/06/02 06:33:16;;;;;;;13.77;11.93;;;18.90;99.90;;;;;;5051972;28;20202;-66
2022/06/02 06:36:03;;;;;;;15.43;12.63;;;19.10;99.90;;;;;;5051660;28;20181;-66
2022/06/02 06:38:48;;;;;;;15.83;12.83;;;19.10;99.90;;;;;;5052165;28;20170;-66
2022/06/02 06:41:42;;;;;;;14.07;12.13;;;19.50;99.90;;;;;;5051832;28;20697;-65
2022/06/02 06:44:39;;;;;;;17.40;12.20;;;19.90;99.90;;;;;;5051918;28;20193;-65
2022/06/02 06:47:20;;;;;;;15.10;11.90;;;20.50;99.90;;;;;;5046805;28;20630;-66
2022/06/02 06:49:51;;;;;;;13.20;11.80;;;20.90;99.90;;;;;;5052079;28;20168;-65
2022/06/02 06:52:28;;;;;;;15.93;11.82;;;21.30;99.90;;;;;;5051391;28;20708;-65
2022/06/02 06:55:12;;;;;;;13.48;11.73;;;21.60;99.90;;;;;;5051203;28;20190;-65
2022/06/02 06:57:47;;;;;;;13.27;11.88;;;21.90;99.90;;;;;;5051782;28;20171;-65
2022/06/02 07:00:22;;;;;;;14.23;12.27;;;22.00;99.90;;;;;;5051431;28;20174;-65
2022/06/02 07:02:51;;;;;;;15.35;11.65;;;21.90;99.90;;;;;;5051574;28;20251;-66
2022/06/02 07:05:37;;;;;;;13.57;11.50;;;22.20;99.90;;;;;;5051129;28;20175;-65
2022/06/02 07:08:35;;;;;;;14.25;12.48;;;22.50;99.90;;;;;;5051253;28;20175;-64
2022/06/02 07:14:24;;;;;;;16.48;13.02;;;22.90;99.90;;;;;;5050900;28;20264;-65
2022/06/02 07:16:57;;;;;;;13.93;12.50;;;22.80;99.90;;;;;;5051325;28;20570;-64
2022/06/02 07:19:39;;;;;;;14.85;11.18;;;22.50;99.90;;;;;;5050889;28;20182;-64
2022/06/02 07:22:23;;;;;;;15.20;11.63;;;22.50;99.90;;;;;;5051216;28;20210;-64
2022/06/02 07:25:28;;;;;;;14.98;11.52;;;22.40;99.90;;;;;;5049303;28;20265;-65
2022/06/02 07:28:05;;;;;;;16.85;11.50;;;22.60;99.90;;;;;;5051201;28;20187;-64
2022/06/02 07:31:04;;;;;;;13.55;12.20;;;23.00;99.90;;;;;;5050939;28;20178;-65
2022/06/02 07:33:57;;;;;;;14.18;12.65;;;23.00;99.90;;;;;;5050680;28;20187;-64
2022/06/02 07:36:31;;;;;;;14.38;12.75;;;22.60;99.90;;;;;;5051368;28;20661;-65
2022/06/02 07:39:30;;;;;;;16.20;13.00;;;22.70;99.90;;;;;;5050771;28;20190;-64
2022/06/02 07:42:08;;;;;;;18.17;12.45;;;22.80;99.90;;;;;;5050944;28;20686;-64
2022/06/02 07:44:51;;;;;;;16.55;12.32;;;23.00;99.90;;;;;;5050312;28;20186;-65
2022/06/02 07:47:55;;;;;;;13.70;12.13;;;23.50;99.90;;;;;;5050786;28;20175;-64
2022/06/02 07:50:29;;;;;;;13.68;11.73;;;24.10;99.90;;;;;;5051114;28;20163;-64
2022/06/02 07:53:02;;;;;;;18.70;12.77;;;24.20;99.90;;;;;;5050472;28;20294;-64
2022/06/02 07:55:52;;;;;;;14.88;11.52;;;24.30;99.90;;;;;;5050861;28;20664;-64
2022/06/02 07:58:33;;;;;;;13.07;11.85;;;24.20;99.90;;;;;;5050687;28;20182;-65
2022/06/02 08:01:16;;;;;;;11.60;10.50;;;24.60;99.90;;;;;;5050847;28;20650;-65
2022/06/02 08:03:45;;;;;;;12.18;10.80;;;25.20;99.90;;;;;;5049444;28;20187;-64
2022/06/02 08:06:13;;;;;;;14.80;10.90;;;25.40;99.90;;;;;;5050676;28;20171;-65
2022/06/02 08:08:57;;;;;;;12.88;11.05;;;25.80;99.90;;;;;;5050069;28;20642;-65
2022/06/02 08:11:38;;;;;;;13.10;11.77;;;26.10;99.90;;;;;;5050787;28;20224;-65
2022/06/02 08:14:22;;;;;;;13.40;10.98;;;26.30;99.90;;;;;;5044535;28;20187;-65
2022/06/02 08:16:59;;;;;;;10.52;9.52;;;26.10;99.90;;;;;;5050399;28;20186;-65
2022/06/02 08:19:27;;;;;;;8.35;7.53;;;26.10;99.90;;;;;;5049636;28;20171;-65
2022/06/02 08:22:02;;;;;;;9.80;8.05;;;26.50;99.90;;;;;;5050200;28;20206;-65
2022/06/02 08:24:49;;;;;;;11.57;9.63;;;26.50;99.90;;;;;;5050526;28;20178;-65
2022/06/02 08:27:21;;;;;;;9.45;8.55;;;26.40;99.90;;;;;;5050570;28;20178;-64
2022/06/02 08:30:13;;;;;;;10.82;9.70;;;26.90;99.90;;;;;;5052858;28;20174;-65
2022/06/02 08:32:54;;;;;;;9.57;8.35;;;27.10;99.90;;;;;;5054027;28;20727;-65
2022/06/02 08:35:20;;;;;;;9.27;8.23;;;27.00;99.90;;;;;;5052785;28;20182;-65
2022/06/02 08:37:55;;;;;;;9.18;8.25;;;26.70;99.90;;;;;;5054220;28;20179;-65
2022/06/02 08:40:36;;;;;;;10.30;9.30;;;26.50;99.90;;;;;;5054320;28;20209;-64
2022/06/02 08:43:17;;;;;;;11.18;9.65;;;26.90;99.90;;;;;;5053621;28;20491;-65
2022/06/02 08:46:05;;;;;;;10.40;8.27;;;26.90;99.90;;;;;;5052119;28;20178;-64
2022/06/02 08:48:55;;;;;;;9.30;8.50;;;26.80;99.90;;;;;;5050848;28;20662;-65
2022/06/02 08:51:50;;;;;;;12.70;9.90;;;26.40;99.90;;;;;;5053752;28;20230;-65
2022/06/02 08:54:35;;;;;;;13.00;10.70;;;26.60;99.90;;;;;;5044829;28;20542;-64
2022/06/02 08:57:33;;;;;;;12.45;11.23;;;26.40;99.90;;;;;;5052314;28;20191;-65
2022/06/02 09:00:10;;;;;;;10.93;9.82;;;26.00;99.90;;;;;;5053859;28;20560;-64
2022/06/02 09:03:09;;;;;;;13.00;11.27;;;25.40;99.90;;;;;;5053396;28;20221;-64
2022/06/02 09:06:03;;;;;;;11.98;10.77;;;24.70;99.90;;;;;;5053673;28;20171;-64
2022/06/02 09:08:36;;;;;;;11.40;10.18;;;24.10;99.90;;;;;;5053240;28;20194;-65
2022/06/02 09:11:28;;;;;;;11.25;10.13;;;24.10;99.90;;;;;;5053465;28;20221;-65
2022/06/02 09:14:07;;;;;;;11.30;10.20;;;24.80;99.90;;;;;;5033252;28;20167;-64
2022/06/02 09:16:56;;;;;;;11.07;10.07;;;25.00;99.90;;;;;;5034626;28;20732;-65
2022/06/02 09:19:38;;;;;;;11.50;10.40;;;25.40;99.90;;;;;;5049364;28;20230;-65
2022/06/02 09:22:10;;;;;;;9.55;8.57;;;26.00;99.90;;;;;;5052879;28;20571;-65
2022/06/02 09:24:49;;;;;;;10.80;9.80;;;26.10;99.90;;;;;;5053031;28;20194;-65
2022/06/02 09:27:42;;;;;;;8.75;7.78;;;26.40;99.90;;;;;;5052803;28;20174;-65
2022/06/02 09:30:14;;;;;;;8.70;7.90;;;27.30;99.90;;;;;;5053176;28;20178;-65
2022/06/02 09:32:49;;;;;;;9.00;8.18;;;27.80;99.90;;;;;;5052658;28;20202;-65
2022/06/02 09:35:23;;;;;;;8.52;7.80;;;28.00;99.90;;;;;;5051474;28;20170;-65
2022/06/02 09:38:23;;;;;;;9.00;8.20;;;27.70;98.10;;;;;;5053142;28;20531;-65
2022/06/02 09:41:36;;;;;;;6.90;6.30;;;27.70;97.30;;;;;;5051537;28;20175;-64
2022/06/02 09:44:17;;;;;;;7.30;6.60;;;28.10;98.90;;;;;;4991032;28;20200;-64
2022/06/02 09:47:08;;;;;;;6.63;5.93;;;28.70;97.80;;;;;;5045588;28;20186;-64
2022/06/02 09:50:02;;;;;;;9.13;7.18;;;29.30;97.30;;;;;;5053015;28;20167;-64
2022/06/02 09:52:57;;;;;;;6.88;6.18;;;29.50;95.80;;;;;;5052643;28;20203;-65
2022/06/02 09:56:10;;;;;;;7.57;6.65;;;29.70;98.00;;;;;;5052500;28;20207;-64
2022/06/02 09:58:47;;;;;;;8.05;5.88;;;29.50;95.10;;;;;;5029022;28;20198;-64
2022/06/02 10:01:34;;;;;;;8.48;7.60;;;29.00;92.10;;;;;;5052376;28;20887;-64
2022/06/02 10:04:30;;;;;;;8.57;7.30;;;28.40;92.80;;;;;;5052314;28;20300;-64
2022/06/02 10:07:15;;;;;;;8.30;7.50;;;27.50;92.80;;;;;;5052044;28;20182;-63
2022/06/02 10:10:09;;;;;;;10.05;8.73;;;26.10;93.80;;;;;;5052687;28;20179;-64
2022/06/02 10:12:55;;;;;;;8.90;8.00;;;25.20;98.50;;;;;;5032395;28;20666;-64
2022/06/02 10:15:40;;;;;;;8.07;7.38;;;25.10;99.30;;;;;;5034190;28;20276;-65
2022/06/02 10:18:26;;;;;;;8.48;6.78;;;26.00;98.70;;;;;;5051629;28;20175;-64
2022/06/02 10:21:25;;;;;;;6.85;6.35;;;26.80;98.80;;;;;;5051368;28;20175;-64
2022/06/02 10:24:15;;;;;;;6.85;6.25;;;27.70;95.40;;;;;;5050797;28;20175;-64
2022/06/02 10:27:16;;;;;;;7.63;6.93;;;27.70;92.90;;;;;;5050961;28;20171;-64
2022/06/02 10:30:10;;;;;;;7.20;6.50;;;27.50;95.40;;;;;;5047095;28;20656;-64
2022/06/02 10:32:56;;;;;;;8.52;7.72;;;27.30;93.90;;;;;;5050793;28;20201;-65
2022/06/02 10:35:52;;;;;;;8.20;6.88;;;27.00;94.00;;;;;;5050730;28;20175;-64
2022/06/02 10:38:48;;;;;;;7.95;7.15;;;27.00;94.60;;;;;;5051233;28;20646;-64
2022/06/02 10:41:42;;;;;;;9.45;7.25;;;27.20;94.20;;;;;;5050779;28;20205;-64
2022/06/02 10:44:17;;;;;;;7.60;6.90;;;26.90;95.50;;;;;;5051047;28;20330;-64
2022/06/02 10:47:19;;;;;;;7.15;6.55;;;25.60;93.10;;;;;;5050478;28;20171;-64
2022/06/02 10:50:00;;;;;;;6.80;6.20;;;25.30;97.40;;;;;;5050911;28;20174;-64
2022/06/02 10:53:02;;;;;;;7.03;6.43;;;25.40;94.50;;;;;;5050818;28;20198;-64
2022/06/02 10:56:02;;;;;;;7.30;5.88;;;25.70;97.40;;;;;;5050485;28;20268;-65
2022/06/02 10:59:03;;;;;;;5.75;5.30;;;26.20;94.70;;;;;;5050726;28;20675;-65
2022/06/02 11:01:57;;;;;;;6.35;5.72;;;26.80;95.30;;;;;;5050666;28;20206;-65
2022/06/02 11:05:25;;;;;;;5.20;4.80;;;26.90;93.70;;;;;;5050369;28;20244;-65
2022/06/02 11:08:15;;;;;;;5.82;5.15;;;27.00;93.60;;;;;;4989079;28;20180;-64
2022/06/02 11:11:04;;;;;;;5.47;5.07;;;26.60;92.40;;;;;;4989160;28;20177;-64
2022/06/02 11:13:59;;;;;;;6.35;5.70;;;26.50;92.80;;;;;;5037067;28;20185;-65
2022/06/02 11:16:43;;;;;;;5.07;4.75;;;26.70;94.00;;;;;;5045324;28;20190;-64
2022/06/02 11:19:27;;;;;;;5.40;5.00;;;27.10;93.50;;;;;;5050274;28;20508;-64
2022/06/02 11:22:18;;;;;;;5.47;4.97;;;27.20;91.00;;;;;;5012111;28;1108905;-65
2022/06/02 11:25:02;;;;;;;4.90;4.50;;;27.30;92.70;;;;;;5050656;28;20184;-64
2022/06/02 11:28:01;;;;;;;5.63;5.13;;;27.40;91.50;;;;;;5051146;28;20224;-64
2022/06/02 11:30:53;;;;;;;4.68;4.35;;;27.30;90.10;;;;;;5051317;28;20167;-64
2022/06/02 11:33:36;;;;;;;5.40;4.95;;;27.50;92.00;;;;;;5050862;28;20182;-64
2022/06/02 11:36:08;;;;;;;5.45;4.88;;;27.80;91.10;;;;;;5051093;28;20254;-64
2022/06/02 11:38:36;;;;;;;5.60;5.20;;;27.60;93.20;;;;;;5049082;28;20186;-64
2022/06/02 11:41:25;;;;;;;4.80;4.28;;;27.90;91.60;;;;;;5049201;28;20344;-64
2022/06/02 11:44:11;;;;;;;5.30;4.80;;;27.90;87.90;;;;;;5030376;28;20182;-65
2022/06/02 11:47:04;;;;;;;4.88;4.57;;;28.00;90.30;;;;;;5031037;28;20167;-64
2022/06/02 11:50:08;;;;;;;5.47;5.00;;;28.20;89.80;;;;;;5031525;28;20183;-65
2022/06/02 11:52:56;;;;;;;4.78;4.47;;;28.20;88.20;;;;;;5030736;28;20584;-65
2022/06/02 11:55:32;;;;;;;4.70;4.30;;;28.60;90.20;;;;;;5048533;28;20187;-63
2022/06/02 11:58:35;;;;;;;4.78;4.47;;;28.80;85.00;;;;;;5042024;28;20554;-64
2022/06/02 12:01:06;;;;;;;4.90;4.43;;;28.70;87.50;;;;;;5031447;28;20183;-62
2022/06/02 12:03:52;;;;;;;5.18;4.68;;;28.40;84.00;;;;;;5031488;28;20176;-64
2022/06/02 12:06:40;;;;;;;4.78;4.47;;;27.20;83.40;;;;;;5035166;28;20529;-63
2022/06/02 12:09:33;;;;;;;5.80;4.75;;;25.90;84.70;;;;;;5034984;28;20286;-64
2022/06/02 12:12:31;;;;;;;4.43;4.13;;;25.40;89.60;;;;;;5034973;28;20209;-64
2022/06/02 12:15:16;;;;;;;4.95;4.55;;;25.50;88.10;;;;;;5001203;28;20249;-64
2022/06/02 12:17:54;;;;;;;5.25;4.70;;;25.50;88.60;;;;;;5035045;28;20207;-63
2022/06/02 12:20:26;;;;;;;4.65;4.32;;;25.40;90.30;;;;;;5035074;28;20229;-64
2022/06/02 12:23:03;;;;;;;4.55;4.25;;;25.60;88.90;;;;;;5034427;28;20243;-65
2022/06/02 12:25:48;;;;;;;4.93;4.53;;;25.90;91.30;;;;;;5034590;28;20171;-66
2022/06/02 12:28:31;;;;;;;5.13;4.18;;;26.00;90.10;;;;;;5034812;28;20225;-65
2022/06/02 12:31:00;;;;;;;6.07;5.55;;;26.00;90.70;;;;;;5034589;28;20171;-65
2022/06/02 12:33:50;;;;;;;5.18;4.82;;;25.70;92.10;;;;;;5034555;28;20168;-65
2022/06/02 12:36:30;;;;;;;5.20;4.70;;;26.00;87.30;;;;;;5034677;28;20537;-65
2022/06/02 12:38:59;;;;;;;4.88;4.47;;;26.50;92.00;;;;;;5034292;28;20175;-65
2022/06/02 12:42:02;;;;;;;5.70;5.20;;;27.10;90.50;;;;;;5034495;28;20567;-65
2022/06/02 12:44:39;;;;;;;4.88;4.47;;;27.50;86.40;;;;;;5046027;28;20167;-65
2022/06/02 12:47:26;;;;;;;4.30;4.00;;;27.40;86.00;;;;;;5053903;28;20658;-65
2022/06/02 12:50:09;;;;;;;4.72;4.32;;;27.60;90.10;;;;;;5045278;28;20190;-65
2022/06/02 12:52:54;;;;;;;4.88;4.47;;;28.00;90.00;;;;;;5053942;28;20197;-65
2022/06/02 12:55:42;;;;;;;4.90;4.47;;;28.60;88.40;;;;;;5052444;28;20167;-65
2022/06/02 12:58:14;;;;;;;4.47;3.97;;;29.00;93.10;;;;;;5053917;28;20589;-65
2022/06/02 13:01:01;;;;;;;4.53;4.22;;;28.80;83.40;;;;;;5052212;28;20562;-65
2022/06/02 13:03:44;;;;;;;5.05;4.65;;;28.70;82.80;;;;;;5041272;28;20214;-66
2022/06/02 13:06:50;;;;;;;4.25;3.95;;;28.40;82.70;;;;;;5053864;28;20630;-65
2022/06/02 13:09:32;;;;;;;3.80;3.50;;;28.70;86.40;;;;;;5054035;28;20170;-65
2022/06/02 13:12:16;;;;;;;4.43;3.72;;;28.90;85.20;;;;;;5049051;28;20223;-66
2022/06/02 13:14:41;;;;;;;4.35;4.05;;;28.90;84.40;;;;;;5052829;28;20261;-65
2022/06/02 13:17:29;;;;;;;4.65;4.25;;;28.50;83.50;;;;;;5053479;28;20298;-65
2022/06/02 13:20:07;;;;;;;4.78;3.80;;;27.50;81.50;;;;;;5033345;28;20516;-65
2022/06/02 13:22:39;;;;;;;4.40;4.10;;;27.00;86.20;;;;;;5049488;28;20297;-65
2022/06/02 13:25:47;;;;;;;4.63;4.22;;;26.80;87.10;;;;;;5051626;28;20525;-65
2022/06/02 13:28:31;;;;;;;4.47;4.15;;;26.20;86.20;;;;;;5053204;28;20183;-65
2022/06/02 13:31:19;;;;;;;4.15;3.85;;;25.90;88.50;;;;;;5052976;28;20195;-65
2022/06/02 13:34:22;;;;;;;4.47;4.15;;;25.80;85.90;;;;;;5052236;28;20179;-65
2022/06/02 13:36:59;;;;;;;4.63;4.22;;;25.90;87.50;;;;;;5053736;28;20173;-65
2022/06/02 13:39:30;;;;;;;3.83;3.63;;;25.90;83.60;;;;;;5053816;28;20178;-65
2022/06/02 13:42:17;;;;;;;4.68;4.22;;;26.10;89.90;;;;;;5052629;28;20203;-65
2022/06/02 13:44:54;;;;;;;4.47;4.10;;;26.60;84.50;;;;;;5052642;28;20201;-65
2022/06/02 13:47:58;;;;;;;3.90;3.65;;;27.20;85.00;;;;;;5052802;28;20258;-65
2022/06/02 13:50:43;;;;;;;4.25;3.95;;;27.30;85.20;;;;;;5040233;28;20254;-65
2022/06/02 14:00:03;;;;;;;3.90;3.60;;;27.80;87.60;;;;;;5040025;28;20193;-65
2022/06/02 14:02:58;;;;;;;4.97;4.57;;;27.50;88.50;;;;;;5052292;28;20217;-64
2022/06/02 14:05:36;;;;;;;4.82;4.15;;;27.20;90.10;;;;;;5051513;28;20175;-64
2022/06/02 14:08:32;;;;;;;4.00;3.70;;;27.20;82.60;;;;;;5052306;28;20178;-65
2022/06/02 14:11:08;;;;;;;4.18;3.90;;;27.00;86.50;;;;;;5052057;28;20186;-65
2022/06/02 14:13:52;;;;;;;3.90;3.70;;;27.00;89.00;;;;;;5052011;28;20563;-65
2022/06/02 14:16:30;;;;;;;4.97;4.40;;;26.70;86.60;;;;;;5052456;28;20205;-65
2022/06/02 14:19:12;;;;;;;4.55;4.20;;;26.80;84.90;;;;;;5051665;28;20174;-65
2022/06/02 14:21:59;;;;;;;5.32;4.43;;;27.00;87.80;;;;;;5042193;28;20233;-65
2022/06/02 14:24:42;;;;;;;4.35;3.97;;;26.80;87.50;;;;;;5051823;28;20202;-65
2022/06/02 14:27:32;;;;;;;4.03;3.72;;;26.80;85.60;;;;;;5031838;28;20172;-65